KELZ/ELZ METAR and TAF weather

Enter ICAO airport designator
Station Type Date Time Source
KELZ METAR 2019/04/19 22:28 UTC NOAA

KELZ 192228Z AUTO 12003KT 3SM -RA BR BKN013 OVC080 14/14 A2961 RMK AO2 P0004 T01440144


Station Type Date Time Source
KELZ Decoded METAR 2019/04/19 22:28 UTC NOAA

WELLSVILLE MUNICIPAL AIRPORT, NY, United States (KELZ) 42-06N 077-60W 646M
Apr 19, 2019 - 06:28 PM EDT / 2019.04.19 2228 UTC
Wind: from the ESE (120 degrees) at 3 MPH (3 KT):0
Visibility: 3 mile(s):0
Sky conditions: overcast
Weather: light rain; mist
Precipitation last hour: 0.04 inches
Temperature: 57.9 F (14.4 C)
Dew Point: 57.9 F (14.4 C)
Relative Humidity: 100%
Pressure (altimeter): 29.61 in. Hg (1002 hPa)
ob: KELZ 192228Z AUTO 12003KT 3SM -RA BR BKN013 OVC080 14/14 A2961 RMK AO2 P0004 T01440144
cycle: 22

Station Type Date Time Source
KELZ TAF UTC NOAA

Error!

Example: see airport list